createdAt,value
2023-04-15T00:00:59.849Z,8.70
2023-04-15T00:03:29.960Z,10.20
2023-04-15T00:05:58.663Z,8.60
2023-04-15T00:08:26.655Z,8.70
2023-04-15T00:10:54.796Z,8.90
2023-04-15T00:13:22.842Z,9.40
2023-04-15T00:15:50.802Z,6.80
2023-04-15T00:18:18.764Z,7.80
2023-04-15T00:20:47.227Z,7.90
2023-04-15T00:23:15.111Z,11.80
2023-04-15T00:25:43.303Z,9.00
2023-04-15T00:28:11.752Z,9.10
2023-04-15T00:30:39.891Z,7.40
2023-04-15T00:33:09.309Z,7.80
2023-04-15T00:35:37.656Z,12.30
2023-04-15T00:38:08.247Z,9.30
2023-04-15T00:40:36.418Z,6.90
2023-04-15T00:43:04.433Z,9.00
2023-04-15T00:45:33.575Z,8.70
2023-04-15T00:48:01.917Z,7.20
2023-04-15T00:50:30.098Z,7.40
2023-04-15T00:52:58.223Z,8.90
2023-04-15T00:55:26.845Z,8.60
2023-04-15T00:57:54.954Z,7.10
2023-04-15T01:00:23.548Z,8.00
2023-04-15T01:02:52.358Z,7.20
2023-04-15T01:05:20.476Z,8.40
2023-04-15T01:07:51.963Z,6.20
2023-04-15T01:10:20.027Z,9.00
2023-04-15T01:12:48.168Z,6.70
2023-04-15T01:15:16.264Z,7.00
2023-04-15T01:17:44.194Z,10.00
2023-04-15T01:20:13.109Z,9.20
2023-04-15T01:22:41.434Z,8.40
2023-04-15T01:25:17.851Z,8.10
2023-04-15T01:27:46.542Z,9.50
2023-04-15T01:30:14.657Z,8.30
2023-04-15T01:32:43.081Z,6.40
2023-04-15T01:35:11.015Z,7.70
2023-04-15T01:37:39.070Z,6.60
2023-04-15T01:40:08.078Z,7.30
2023-04-15T01:42:37.521Z,8.00
2023-04-15T01:45:06.415Z,8.90
2023-04-15T01:47:34.487Z,7.30
2023-04-15T01:50:03.507Z,8.40
2023-04-15T01:52:32.213Z,6.10
2023-04-15T01:55:00.203Z,7.90
2023-04-15T01:57:28.184Z,9.60
2023-04-15T01:59:56.743Z,9.80
2023-04-15T02:02:25.035Z,7.20
2023-04-15T02:04:53.624Z,6.90
2023-04-15T02:07:21.997Z,7.50
2023-04-15T02:09:50.080Z,6.50
2023-04-15T02:12:17.973Z,9.10
2023-04-15T02:14:46.572Z,6.60
2023-04-15T02:17:14.576Z,6.20
2023-04-15T02:19:44.602Z,8.10
2023-04-15T02:22:18.405Z,7.20
2023-04-15T02:24:47.561Z,7.70
2023-04-15T02:27:17.756Z,6.70
2023-04-15T02:29:46.361Z,7.50
2023-04-15T02:32:14.707Z,8.20
2023-04-15T02:34:43.228Z,8.30
2023-04-15T02:37:12.559Z,5.50
2023-04-15T02:39:40.900Z,9.20
2023-04-15T02:42:08.810Z,8.90
2023-04-15T02:44:38.097Z,6.80
2023-04-15T02:47:07.476Z,8.00
2023-04-15T02:49:35.926Z,8.40
2023-04-15T02:52:03.872Z,5.20
2023-04-15T02:54:34.150Z,6.30
2023-04-15T02:57:02.688Z,7.60
2023-04-15T02:59:30.867Z,8.50
2023-04-15T03:02:01.477Z,6.40
2023-04-15T03:04:30.910Z,7.60
2023-04-15T03:07:02.016Z,8.10
2023-04-15T03:09:30.294Z,8.20
2023-04-15T03:11:59.388Z,6.90
2023-04-15T03:14:27.365Z,7.00
2023-04-15T03:16:56.149Z,8.10
2023-04-15T03:19:25.240Z,6.60
2023-04-15T03:21:53.213Z,6.40
2023-04-15T03:24:21.534Z,10.10
2023-04-15T03:26:49.539Z,6.90
2023-04-15T03:29:18.131Z,9.70
2023-04-15T03:31:46.403Z,7.10
2023-04-15T03:34:14.614Z,7.90
2023-04-15T03:36:42.656Z,6.40
2023-04-15T03:39:11.041Z,7.70
2023-04-15T03:41:39.034Z,9.10
2023-04-15T03:44:07.102Z,8.10
2023-04-15T03:46:35.063Z,7.50
2023-04-15T03:49:03.533Z,9.20
2023-04-15T03:51:31.693Z,8.40
2023-04-15T03:54:00.043Z,7.80
2023-04-15T03:56:28.020Z,8.40
2023-04-15T03:58:56.199Z,8.20
2023-04-15T04:01:24.130Z,10.00
2023-04-15T04:03:52.388Z,10.00
2023-04-15T04:06:20.618Z,8.70
2023-04-15T04:08:48.858Z,14.40
2023-04-15T04:11:17.223Z,9.30
2023-04-15T04:13:45.450Z,11.20
2023-04-15T04:16:13.540Z,13.20
2023-04-15T04:18:41.554Z,14.30
2023-04-15T04:21:09.614Z,11.50
2023-04-15T04:23:37.711Z,11.20
2023-04-15T04:26:06.219Z,11.50
2023-04-15T04:28:35.345Z,8.50
2023-04-15T04:31:03.971Z,9.90
2023-04-15T04:33:32.298Z,9.90
2023-04-15T04:36:00.234Z,14.90
2023-04-15T04:38:28.165Z,9.60
2023-04-15T04:40:56.450Z,9.40
2023-04-15T04:43:24.450Z,12.00
2023-04-15T04:45:52.433Z,11.00
2023-04-15T04:48:20.653Z,11.10
2023-04-15T04:50:48.859Z,9.50
2023-04-15T04:53:17.454Z,14.80
2023-04-15T04:55:45.709Z,14.10
2023-04-15T04:58:13.797Z,14.20
2023-04-15T05:00:42.199Z,13.10
2023-04-15T05:03:10.559Z,13.10
2023-04-15T05:05:41.238Z,14.00
2023-04-15T05:08:09.143Z,15.10
2023-04-15T05:10:37.544Z,13.70
2023-04-15T05:13:05.600Z,11.10
2023-04-15T05:15:35.121Z,12.90
2023-04-15T05:18:03.235Z,14.80
2023-04-15T05:20:31.293Z,11.60
2023-04-15T05:22:59.339Z,12.20
2023-04-15T05:25:27.748Z,16.00
2023-04-15T05:27:58.869Z,12.50
2023-04-15T05:30:26.815Z,13.70
2023-04-15T05:32:55.430Z,11.60
2023-04-15T05:35:23.941Z,11.40
2023-04-15T05:37:51.832Z,16.80
2023-04-15T05:40:20.236Z,11.50
2023-04-15T05:42:48.326Z,16.00
2023-04-15T05:45:16.716Z,13.80
2023-04-15T05:47:44.936Z,18.00
2023-04-15T05:50:13.167Z,16.30
2023-04-15T05:52:41.161Z,17.30
2023-04-15T05:55:09.604Z,15.80
2023-04-15T05:57:37.891Z,16.00
2023-04-15T06:00:06.664Z,13.20
2023-04-15T06:02:40.594Z,12.50
2023-04-15T06:05:11.295Z,18.60
2023-04-15T06:07:39.344Z,14.30
2023-04-15T06:10:08.008Z,16.90
2023-04-15T06:12:36.268Z,16.30
2023-04-15T06:15:04.952Z,15.50
2023-04-15T06:17:32.928Z,14.80
2023-04-15T06:20:01.251Z,14.60
2023-04-15T06:22:31.547Z,11.10
2023-04-15T06:24:59.580Z,10.00
2023-04-15T06:27:27.492Z,14.50
2023-04-15T06:29:55.892Z,12.80
2023-04-15T06:32:24.475Z,15.50
2023-04-15T06:34:52.514Z,9.90
2023-04-15T06:37:20.784Z,10.60
2023-04-15T06:39:48.798Z,9.90
2023-04-15T06:42:16.903Z,10.60
2023-04-15T06:44:45.194Z,10.00
2023-04-15T06:47:14.913Z,11.40
2023-04-15T06:49:43.298Z,14.10
2023-04-15T06:52:11.481Z,10.90
2023-04-15T06:54:39.598Z,12.20
2023-04-15T06:57:07.868Z,11.70
2023-04-15T06:59:36.175Z,11.40
2023-04-15T07:02:04.982Z,12.80
2023-04-15T07:04:34.735Z,12.40
2023-04-15T07:07:02.882Z,14.50
2023-04-15T07:09:31.343Z,12.60
2023-04-15T07:11:59.292Z,12.00
2023-04-15T07:14:27.888Z,14.70
2023-04-15T07:16:56.544Z,14.50
2023-04-15T07:19:27.208Z,12.20
2023-04-15T07:21:55.405Z,13.50
2023-04-15T07:24:26.756Z,13.10
2023-04-15T07:26:59.451Z,11.80
2023-04-15T07:29:28.786Z,10.40
2023-04-15T07:31:57.340Z,13.90
2023-04-15T07:34:25.875Z,13.60
2023-04-15T07:36:53.898Z,12.40
2023-04-15T07:39:22.780Z,13.50
2023-04-15T07:41:50.729Z,13.20
2023-04-15T07:44:19.490Z,13.50
2023-04-15T07:46:47.999Z,11.70
2023-04-15T07:49:15.940Z,11.80
2023-04-15T07:51:44.544Z,10.70
2023-04-15T07:54:12.725Z,12.60
2023-04-15T07:56:41.421Z,11.80
2023-04-15T07:59:10.681Z,9.50
2023-04-15T08:01:39.020Z,9.90
2023-04-15T08:04:07.438Z,10.50
2023-04-15T08:06:35.495Z,10.10
2023-04-15T08:09:05.252Z,11.20
2023-04-15T08:11:33.600Z,14.50
2023-04-15T08:14:02.142Z,9.90
2023-04-15T08:16:30.167Z,6.90
2023-04-15T08:18:58.435Z,13.00
2023-04-15T08:21:27.777Z,6.20
2023-04-15T08:23:56.625Z,8.40
2023-04-15T08:26:24.754Z,7.70
2023-04-15T08:28:52.791Z,5.40
2023-04-15T08:31:21.129Z,5.00
2023-04-15T08:33:49.287Z,4.90
2023-04-15T08:36:17.786Z,6.10
2023-04-15T08:38:45.875Z,3.50
2023-04-15T08:41:49.021Z,3.00
2023-04-15T08:44:18.600Z,4.00
2023-04-15T08:46:47.617Z,8.10
2023-04-15T08:49:18.156Z,5.90
2023-04-15T08:51:46.466Z,5.60
2023-04-15T08:54:15.130Z,5.20
2023-04-15T08:56:43.294Z,6.50
2023-04-15T08:59:12.547Z,3.80
2023-04-15T09:01:41.647Z,2.70
2023-04-15T09:04:12.638Z,2.10
2023-04-15T09:06:41.508Z,4.20
2023-04-15T09:09:09.756Z,2.80
2023-04-15T09:11:37.863Z,3.30
2023-04-15T09:14:06.042Z,2.60
2023-04-15T09:17:02.042Z,2.40
2023-04-15T09:19:30.501Z,2.50
2023-04-15T09:22:17.245Z,4.90
2023-04-15T09:24:51.597Z,1.50
2023-04-15T09:27:21.068Z,4.50
2023-04-15T09:29:51.683Z,3.90
2023-04-15T09:32:21.294Z,2.60
2023-04-15T09:34:49.503Z,1.90
2023-04-15T09:37:31.761Z,3.90
2023-04-15T09:40:00.222Z,2.40
2023-04-15T09:42:28.762Z,3.00
2023-04-15T09:45:09.396Z,2.50
2023-04-15T09:47:37.907Z,2.00
2023-04-15T09:50:06.277Z,2.40
2023-04-15T09:52:34.301Z,3.80
2023-04-15T09:55:02.732Z,3.70
2023-04-15T09:57:36.510Z,2.30
2023-04-15T10:00:06.740Z,2.80
2023-04-15T10:02:35.862Z,3.10
2023-04-15T10:05:04.372Z,2.60
2023-04-15T10:07:32.761Z,3.40
2023-04-15T10:10:05.441Z,3.80
2023-04-15T10:12:33.647Z,3.40
2023-04-15T10:15:05.352Z,3.40
2023-04-15T10:17:35.549Z,3.80
2023-04-15T10:20:05.562Z,2.50
2023-04-15T10:22:33.653Z,4.60
2023-04-15T10:25:04.425Z,4.30
2023-04-15T10:27:33.882Z,2.30
2023-04-15T10:30:03.958Z,2.20
2023-04-15T10:32:34.292Z,3.10
2023-04-15T10:35:04.291Z,3.10
2023-04-15T10:37:37.591Z,2.00
2023-04-15T10:40:31.805Z,2.30
2023-04-15T10:43:02.054Z,2.90
2023-04-15T10:45:37.639Z,2.50
2023-04-15T10:48:08.838Z,4.30
2023-04-15T10:50:39.588Z,4.00
2023-04-15T10:53:10.807Z,3.10
2023-04-15T10:55:39.071Z,4.10
2023-04-15T10:58:08.799Z,2.70
2023-04-15T11:00:37.723Z,1.70
2023-04-15T11:03:09.923Z,1.70
2023-04-15T11:05:41.642Z,3.80
2023-04-15T11:08:10.956Z,1.60
2023-04-15T11:10:38.966Z,1.90
2023-04-15T11:13:10.233Z,4.80
2023-04-15T11:15:46.345Z,1.80
2023-04-15T11:18:26.494Z,1.40
2023-04-15T11:21:00.201Z,3.80
2023-04-15T11:23:47.806Z,2.40
2023-04-15T11:26:16.314Z,2.70
2023-04-15T11:28:46.131Z,1.60
2023-04-15T11:31:16.499Z,2.40
2023-04-15T11:33:55.571Z,1.50
2023-04-15T11:36:29.045Z,2.10
2023-04-15T11:38:58.922Z,1.90
2023-04-15T11:41:27.918Z,2.80
2023-04-15T11:43:56.158Z,3.80
2023-04-15T11:46:31.899Z,1.60
2023-04-15T11:49:00.397Z,4.20
2023-04-15T11:51:33.433Z,1.30
2023-04-15T11:54:02.997Z,1.70
2023-04-15T11:56:32.115Z,2.20
2023-04-15T11:59:00.180Z,2.10
2023-04-15T12:01:47.697Z,2.60
2023-04-15T12:04:22.581Z,2.30
2023-04-15T12:06:53.062Z,1.90
2023-04-15T12:09:21.759Z,2.20
2023-04-15T12:11:57.419Z,2.50
2023-04-15T12:14:25.442Z,2.10
2023-04-15T12:17:00.411Z,1.80
2023-04-15T12:19:32.726Z,1.60
2023-04-15T12:22:10.322Z,1.40
2023-04-15T12:24:39.748Z,3.80
2023-04-15T12:27:17.656Z,1.90
2023-04-15T12:29:45.729Z,2.10
2023-04-15T12:32:21.117Z,4.50
2023-04-15T12:34:54.560Z,2.00
2023-04-15T12:37:22.656Z,5.50
2023-04-15T12:39:54.091Z,2.10
2023-04-15T12:42:22.779Z,3.10
2023-04-15T12:44:50.759Z,6.20
2023-04-15T12:47:18.764Z,1.60
2023-04-15T12:49:49.644Z,2.20
2023-04-15T12:52:17.705Z,2.50
2023-04-15T12:54:45.798Z,2.40
2023-04-15T12:57:13.890Z,1.80
2023-04-15T12:59:42.042Z,1.90
2023-04-15T13:02:10.261Z,1.00
2023-04-15T13:04:38.437Z,2.10
2023-04-15T13:07:06.686Z,3.80
2023-04-15T13:09:34.813Z,1.50
2023-04-15T13:12:04.791Z,1.70
2023-04-15T13:14:32.906Z,1.30
2023-04-15T13:17:00.931Z,0.90
2023-04-15T13:19:29.552Z,0.70
2023-04-15T13:21:57.654Z,1.50
2023-04-15T13:24:26.119Z,2.80
2023-04-15T13:26:55.506Z,2.50
2023-04-15T13:29:24.349Z,2.50
2023-04-15T13:31:52.494Z,1.20
2023-04-15T13:34:21.008Z,2.20
2023-04-15T13:36:49.025Z,1.40
2023-04-15T13:39:17.076Z,2.50
2023-04-15T13:41:45.049Z,1.10
2023-04-15T13:44:13.615Z,1.50
2023-04-15T13:46:44.444Z,1.80
2023-04-15T13:49:12.800Z,2.30
2023-04-15T13:51:41.044Z,0.80
2023-04-15T13:54:09.243Z,1.50
2023-04-15T13:56:37.977Z,3.50
2023-04-15T13:59:07.358Z,0.90
2023-04-15T14:01:36.225Z,0.60
2023-04-15T14:04:04.505Z,0.50
2023-04-15T14:06:32.948Z,1.30
2023-04-15T14:09:01.448Z,1.70
2023-04-15T14:11:30.118Z,1.90
2023-04-15T14:13:58.182Z,1.40
2023-04-15T14:16:26.331Z,1.40
2023-04-15T14:18:54.260Z,1.20
2023-04-15T14:21:22.563Z,1.50
2023-04-15T14:23:50.583Z,3.70
2023-04-15T14:26:19.432Z,3.50
2023-04-15T14:28:48.451Z,1.50
2023-04-15T14:31:16.543Z,0.90
2023-04-15T14:33:45.148Z,0.80
2023-04-15T14:36:13.435Z,1.30
2023-04-15T14:38:41.905Z,2.70
2023-04-15T14:41:10.113Z,2.50
2023-04-15T14:43:39.602Z,0.90
2023-04-15T14:46:08.633Z,1.20
2023-04-15T14:48:37.237Z,1.80
2023-04-15T14:51:06.799Z,3.40
2023-04-15T14:53:35.841Z,1.80
2023-04-15T14:56:04.049Z,1.80
2023-04-15T14:58:33.295Z,1.90
2023-04-15T15:01:03.324Z,1.90
2023-04-15T15:03:32.123Z,2.70
2023-04-15T15:06:00.220Z,3.60
2023-04-15T15:08:29.943Z,2.10
2023-04-15T15:10:57.983Z,2.10
2023-04-15T15:13:25.989Z,2.10
2023-04-15T15:15:54.096Z,2.30
2023-04-15T15:18:22.353Z,2.50
2023-04-15T15:20:50.446Z,3.60
2023-04-15T15:23:18.910Z,0.90
2023-04-15T15:25:47.572Z,1.30
2023-04-15T15:28:18.369Z,3.50
2023-04-15T15:30:46.360Z,2.00
2023-04-15T15:33:16.570Z,0.80
2023-04-15T15:35:44.817Z,1.70
2023-04-15T15:38:13.216Z,1.50
2023-04-15T15:40:41.199Z,1.20
2023-04-15T15:43:09.325Z,1.00
2023-04-15T15:45:38.288Z,0.90
2023-04-15T15:48:07.206Z,1.20
2023-04-15T15:50:35.447Z,1.40
2023-04-15T15:53:03.601Z,0.90
2023-04-15T15:55:31.538Z,1.80
2023-04-15T15:57:59.600Z,0.90
2023-04-15T16:00:27.700Z,1.30
2023-04-15T16:03:06.606Z,1.90
2023-04-15T16:05:36.156Z,1.20
2023-04-15T16:08:04.310Z,1.30
2023-04-15T16:10:33.486Z,3.80
2023-04-15T16:13:02.625Z,1.80
2023-04-15T16:15:30.723Z,1.30
2023-04-15T16:18:01.445Z,1.40
2023-04-15T16:20:29.926Z,1.80
2023-04-15T16:22:59.307Z,2.20
2023-04-15T16:25:27.616Z,1.00
2023-04-15T16:28:03.549Z,0.80
2023-04-15T16:30:38.170Z,1.80
2023-04-15T16:33:06.951Z,2.30
2023-04-15T16:35:35.384Z,1.90
2023-04-15T16:38:03.662Z,1.20
2023-04-15T16:40:33.014Z,1.40
2023-04-15T16:43:03.009Z,1.50
2023-04-15T16:45:31.090Z,1.30
2023-04-15T16:47:59.337Z,1.50
2023-04-15T16:50:27.738Z,1.30
2023-04-15T16:52:55.961Z,1.90
2023-04-15T16:55:24.034Z,1.70
2023-04-15T16:58:00.698Z,1.50
2023-04-15T17:00:32.792Z,2.20
2023-04-15T17:03:01.273Z,2.10
2023-04-15T17:05:31.236Z,1.70
2023-04-15T17:07:59.385Z,2.40
2023-04-15T17:10:28.241Z,2.60
2023-04-15T17:12:57.574Z,1.50
2023-04-15T17:15:28.514Z,2.10
2023-04-15T17:17:56.540Z,3.80
2023-04-15T17:20:24.802Z,5.60
2023-04-15T17:22:52.854Z,3.30
2023-04-15T17:25:21.346Z,3.40
2023-04-15T17:27:49.387Z,3.70
2023-04-15T17:30:17.381Z,3.80
2023-04-15T17:32:45.394Z,2.50
2023-04-15T17:35:13.719Z,3.70
2023-04-15T17:37:41.673Z,2.70
2023-04-15T17:40:10.399Z,3.10
2023-04-15T17:42:38.548Z,2.50
2023-04-15T17:45:07.117Z,4.70
2023-04-15T17:47:35.210Z,6.80
2023-04-15T17:50:03.752Z,7.80
2023-04-15T17:52:32.058Z,4.30
2023-04-15T17:55:00.215Z,4.80
2023-04-15T17:57:28.749Z,2.60
2023-04-15T17:59:56.910Z,2.90
2023-04-15T18:02:25.031Z,6.40
2023-04-15T18:04:53.265Z,5.20
2023-04-15T18:07:21.507Z,5.60
2023-04-15T18:09:50.760Z,4.50
2023-04-15T18:12:18.900Z,6.40
2023-04-15T18:14:47.121Z,11.20
2023-04-15T18:17:15.401Z,10.10
2023-04-15T18:19:43.631Z,7.90
2023-04-15T18:22:12.392Z,7.70
2023-04-15T18:24:40.435Z,10.10
2023-04-15T18:27:08.552Z,11.20
2023-04-15T18:29:36.649Z,14.00
2023-04-15T18:32:05.030Z,11.20
2023-04-15T18:34:36.086Z,7.70
2023-04-15T18:37:05.591Z,8.20
2023-04-15T18:39:34.587Z,6.90
2023-04-15T18:42:02.658Z,8.30
2023-04-15T18:44:30.939Z,9.60
2023-04-15T18:46:58.936Z,12.50
2023-04-15T18:49:27.512Z,8.80
2023-04-15T18:51:55.620Z,7.50
2023-04-15T18:54:23.747Z,10.80
2023-04-15T18:56:51.909Z,15.30
2023-04-15T18:59:30.054Z,9.50
2023-04-15T19:02:00.061Z,8.10
2023-04-15T19:04:31.032Z,8.00
2023-04-15T19:06:59.342Z,9.40
2023-04-15T19:09:29.181Z,9.50
2023-04-15T19:11:57.694Z,7.60
2023-04-15T19:14:26.009Z,10.90
2023-04-15T19:16:54.142Z,9.30
2023-04-15T19:19:22.456Z,10.80
2023-04-15T19:21:52.414Z,8.40
2023-04-15T19:24:20.826Z,6.10
2023-04-15T19:26:51.072Z,9.90
2023-04-15T19:29:20.484Z,7.30
2023-04-15T19:31:48.695Z,9.10
2023-04-15T19:34:17.092Z,10.60
2023-04-15T19:36:45.552Z,9.30
2023-04-15T19:39:14.641Z,10.60
2023-04-15T19:41:44.489Z,10.80
2023-04-15T19:44:13.182Z,11.10
2023-04-15T19:46:43.658Z,11.20
2023-04-15T19:49:11.893Z,9.40
2023-04-15T19:51:40.022Z,11.20
2023-04-15T19:54:08.374Z,7.10
2023-04-15T19:56:37.540Z,7.60
2023-04-15T19:59:06.077Z,8.60
2023-04-15T20:01:34.309Z,10.20
2023-04-15T20:04:04.067Z,8.70
2023-04-15T20:06:32.757Z,12.10
2023-04-15T20:09:01.420Z,11.10
2023-04-15T20:12:45.606Z,12.70
2023-04-15T20:14:17.858Z,11.10
2023-04-15T20:16:47.084Z,8.70
2023-04-15T20:19:15.403Z,12.00
2023-04-15T20:21:43.442Z,10.40
2023-04-15T20:24:11.476Z,11.30
2023-04-15T20:26:39.407Z,8.00
2023-04-15T20:29:07.871Z,7.60
2023-04-15T20:31:36.434Z,12.50
2023-04-15T20:34:04.552Z,9.40
2023-04-15T20:36:32.567Z,10.30
2023-04-15T20:39:01.123Z,7.60
2023-04-15T20:41:29.208Z,10.10
2023-04-15T20:43:57.231Z,9.70
2023-04-15T20:46:27.312Z,8.80
2023-04-15T20:48:56.157Z,10.80
2023-04-15T20:51:24.330Z,11.80
2023-04-15T20:53:52.338Z,9.40
2023-04-15T20:56:20.445Z,9.70
2023-04-15T20:58:48.650Z,10.80
2023-04-15T21:01:16.836Z,8.70
2023-04-15T21:03:45.169Z,11.60
2023-04-15T21:06:13.299Z,9.90
2023-04-15T21:08:41.548Z,11.60
2023-04-15T21:11:10.303Z,11.70
2023-04-15T21:13:38.451Z,14.70
2023-04-15T21:16:06.507Z,11.90
2023-04-15T21:18:35.377Z,11.80
2023-04-15T21:21:03.839Z,9.30
2023-04-15T21:23:32.014Z,13.30
2023-04-15T21:26:00.054Z,12.10
2023-04-15T21:28:28.432Z,11.90
2023-04-15T21:30:59.522Z,10.70
2023-04-15T21:33:27.543Z,13.10
2023-04-15T21:35:55.935Z,12.10
2023-04-15T21:38:24.358Z,13.50
2023-04-15T21:40:52.407Z,16.60
2023-04-15T21:43:23.104Z,13.70
2023-04-15T21:46:21.794Z,13.50
2023-04-15T21:48:40.446Z,17.80
2023-04-15T21:51:08.410Z,16.40
2023-04-15T21:53:36.375Z,16.50
2023-04-15T21:56:04.642Z,13.80
2023-04-15T21:58:32.606Z,14.40
2023-04-15T22:01:00.643Z,16.10
2023-04-15T22:03:33.479Z,13.00
2023-04-15T22:06:05.191Z,13.60
2023-04-15T22:08:38.757Z,16.50
2023-04-15T22:11:21.643Z,16.10
2023-04-15T22:13:49.648Z,20.30
2023-04-15T22:16:17.745Z,19.80
2023-04-15T22:18:45.830Z,19.60
2023-04-15T22:21:14.075Z,21.80
2023-04-15T22:23:46.889Z,18.40
2023-04-15T22:26:15.021Z,19.60
2023-04-15T22:28:43.035Z,17.50
2023-04-15T22:31:11.473Z,17.10
2023-04-15T22:33:39.524Z,16.10
2023-04-15T22:36:07.497Z,13.10
2023-04-15T22:38:35.507Z,18.60
2023-04-15T22:41:03.510Z,13.90
2023-04-15T22:43:31.842Z,15.30
2023-04-15T22:46:00.995Z,14.00
2023-04-15T22:48:28.970Z,13.90
2023-04-15T22:50:57.272Z,16.50
2023-04-15T22:53:25.583Z,16.30
2023-04-15T22:55:54.064Z,10.50
2023-04-15T22:58:22.132Z,12.90
2023-04-15T23:00:50.530Z,17.00
2023-04-15T23:03:18.646Z,13.80
2023-04-15T23:05:47.107Z,14.50
2023-04-15T23:08:15.140Z,12.80
2023-04-15T23:10:44.701Z,16.70
2023-04-15T23:13:12.744Z,14.20
2023-04-15T23:15:40.868Z,13.90
2023-04-15T23:18:09.011Z,14.90
2023-04-15T23:20:37.045Z,14.20
2023-04-15T23:23:05.606Z,14.80
2023-04-15T23:25:33.682Z,14.30
2023-04-15T23:28:02.109Z,12.50
2023-04-15T23:30:30.506Z,12.70
2023-04-15T23:32:58.484Z,11.40
2023-04-15T23:35:27.337Z,11.00
2023-04-15T23:37:55.371Z,14.40
2023-04-15T23:40:23.313Z,11.80
2023-04-15T23:42:51.880Z,11.70
2023-04-15T23:45:19.832Z,10.50
2023-04-15T23:47:48.025Z,8.30
2023-04-15T23:50:16.173Z,9.00
2023-04-15T23:52:44.356Z,10.40
2023-04-15T23:55:12.324Z,11.10
2023-04-15T23:57:41.073Z,9.90
